Time,TemperatureF,DewpointF,PressureIn,WindDirection,WindDirectionDegrees,WindSpeedMPH,WindSpeedGustMPH,Humidity,HourlyPrecipIn,Conditions,Clouds,dailyrainin,SolarRadiationWatts/m^2,SoftwareType,DateUTC
2013-05-11 00:00:00,76.7,73.9,30.06,SW,220,0.0,0.0,91,0.00,,,0.00,0,Wunderground v.1.15,2013-05-11 04:00:00,
2013-05-11 00:30:00,76.8,74.0,30.06,SW,217,0.0,0.0,91,0.00,,,0.00,0,Wunderground v.1.15,2013-05-11 04:30:00,
2013-05-11 01:00:00,76.7,73.9,30.07,SW,219,0.0,0.0,91,0.00,,,0.00,0,Wunderground v.1.15,2013-05-11 05:00:00,
2013-05-11 01:30:00,76.6,74.1,30.05,SW,225,0.0,0.0,92,0.00,,,0.00,0,Wunderground v.1.15,2013-05-11 05:30:00,
2013-05-11 02:00:00,76.1,73.9,30.04,SSE,167,0.0,0.0,93,0.00,,,0.00,0,Wunderground v.1.15,2013-05-11 06:00:00,
2013-05-11 02:30:00,74.9,73.1,30.04,East,98,0.0,0.0,94,0.00,,,0.00,0,Wunderground v.1.15,2013-05-11 06:30:00,
2013-05-11 03:00:00,74.3,72.8,30.03,East,94,0.0,0.0,95,0.00,,,0.00,0,Wunderground v.1.15,2013-05-11 07:00:00,
2013-05-11 03:30:00,74.2,72.7,30.03,East,94,0.0,0.0,95,0.00,,,0.00,0,Wunderground v.1.15,2013-05-11 07:30:00,
2013-05-11 04:00:00,73.8,72.3,30.01,ESE,110,0.0,0.0,95,0.00,,,0.00,0,Wunderground v.1.15,2013-05-11 08:00:00,
2013-05-11 04:30:00,73.7,72.5,30.00,ESE,112,0.0,7.0,96,0.00,,,0.00,0,Wunderground v.1.15,2013-05-11 08:30:00,
2013-05-11 05:00:00,73.4,72.2,30.00,ESE,108,1.0,7.0,96,0.00,,,0.00,0,Wunderground v.1.15,2013-05-11 09:00:00,
2013-05-11 05:30:00,73.0,71.8,30.01,ESE,102,0.0,0.0,96,0.00,,,0.00,0,Wunderground v.1.15,2013-05-11 09:30:00,
2013-05-11 06:00:00,73.3,72.4,30.02,ESE,115,0.0,0.0,97,0.00,,,0.00,0,Wunderground v.1.15,2013-05-11 10:00:00,
2013-05-11 06:30:00,72.5,71.6,30.02,East,92,3.0,3.0,97,0.00,,,0.00,0,Wunderground v.1.15,2013-05-11 10:30:00,
2013-05-11 07:00:00,72.5,71.6,30.03,East,90,0.0,0.0,97,0.00,,,0.00,16,Wunderground v.1.15,2013-05-11 11:00:00,
2013-05-11 07:30:00,72.5,71.6,30.04,ESE,115,0.0,0.0,97,0.00,,,0.00,40,Wunderground v.1.15,2013-05-11 11:30:00,
2013-05-11 08:00:00,72.9,72.0,30.04,ESE,111,1.0,1.0,97,0.00,,,0.00,46,Wunderground v.1.15,2013-05-11 12:00:00,
2013-05-11 08:30:00,73.7,72.8,30.04,SE,129,2.0,8.0,97,0.00,,,0.00,239,Wunderground v.1.15,2013-05-11 12:30:00,
2013-05-11 09:00:00,75.0,74.1,30.04,SE,131,1.0,1.0,97,0.00,,,0.00,176,Wunderground v.1.15,2013-05-11 13:00:00,
2013-05-11 09:30:00,76.6,74.7,30.04,South,169,7.0,9.0,94,0.00,,,0.00,459,Wunderground v.1.15,2013-05-11 13:30:00,
2013-05-11 10:00:00,76.9,74.4,30.06,SSE,161,11.0,11.0,92,0.00,,,0.00,538,Wunderground v.1.15,2013-05-11 14:00:00,
2013-05-11 10:30:00,77.9,74.7,30.05,South,171,8.0,8.0,90,0.00,,,0.00,645,Wunderground v.1.15,2013-05-11 14:30:00,
2013-05-11 11:00:00,77.8,75.3,30.05,SSE,167,10.0,13.0,92,0.00,,,0.00,726,Wunderground v.1.15,2013-05-11 15:00:00,
2013-05-11 11:30:00,78.3,75.5,30.05,South,171,10.0,11.0,91,0.00,,,0.00,747,Wunderground v.1.15,2013-05-11 15:30:00,
2013-05-11 12:00:00,78.6,75.8,30.04,South,169,13.0,13.0,91,0.00,,,0.00,842,Wunderground v.1.15,2013-05-11 16:00:00,
2013-05-11 12:30:00,78.7,75.5,30.05,South,190,11.0,11.0,90,0.00,,,0.00,854,Wunderground v.1.15,2013-05-11 16:30:00,
2013-05-11 13:00:00,79.0,75.8,30.04,South,169,10.0,10.0,90,0.00,,,0.00,900,Wunderground v.1.15,2013-05-11 17:00:00,
2013-05-11 13:30:00,79.3,76.1,30.04,South,184,9.0,10.0,90,0.00,,,0.00,916,Wunderground v.1.15,2013-05-11 17:30:00,
2013-05-11 14:00:00,79.1,75.9,30.04,South,190,10.0,10.0,90,0.00,,,0.00,833,Wunderground v.1.15,2013-05-11 18:00:00,
2013-05-11 14:30:00,79.3,76.1,30.03,South,182,10.0,10.0,90,0.00,,,0.00,867,Wunderground v.1.15,2013-05-11 18:30:00,
2013-05-11 15:00:00,79.2,76.0,30.02,South,181,11.0,11.0,90,0.00,,,0.00,733,Wunderground v.1.15,2013-05-11 19:00:00,
2013-05-11 15:30:00,79.0,75.8,30.02,South,187,12.0,14.0,90,0.00,,,0.00,457,Wunderground v.1.15,2013-05-11 19:30:00,
2013-05-11 16:00:00,79.4,75.9,30.02,South,190,10.0,10.0,89,0.00,,,0.00,612,Wunderground v.1.15,2013-05-11 20:00:00,
2013-05-11 16:30:00,79.6,76.4,30.01,South,187,10.0,10.0,90,0.00,,,0.00,584,Wunderground v.1.15,2013-05-11 20:30:00,
2013-05-11 17:00:00,79.1,75.9,30.01,South,188,11.0,11.0,90,0.00,,,0.00,508,Wunderground v.1.15,2013-05-11 21:00:00,
2013-05-11 17:30:00,79.4,75.9,30.01,SW,214,12.0,12.0,89,0.00,,,0.00,348,Wunderground v.1.15,2013-05-11 21:30:00,
2013-05-11 18:00:00,79.2,76.0,30.00,WSW,242,11.0,13.0,90,0.00,,,0.00,285,Wunderground v.1.15,2013-05-11 22:00:00,
2013-05-11 18:30:00,78.8,75.9,30.00,SW,222,11.0,11.0,91,0.00,,,0.00,200,Wunderground v.1.15,2013-05-11 22:30:00,
2013-05-11 19:00:00,78.7,76.2,30.00,SW,235,10.0,10.0,92,0.00,,,0.00,97,Wunderground v.1.15,2013-05-11 23:00:00,
2013-05-11 19:30:00,78.1,75.9,30.00,WSW,249,10.0,10.0,93,0.00,,,0.00,60,Wunderground v.1.15,2013-05-11 23:30:00,
2013-05-11 20:00:00,77.8,75.3,30.01,SW,231,8.0,9.0,92,0.00,,,0.00,12,Wunderground v.1.15,2013-05-12 00:00:00,
2013-05-11 20:30:00,77.7,75.2,30.02,West,263,11.0,11.0,92,0.00,,,0.00,0,Wunderground v.1.15,2013-05-12 00:30:00,
2013-05-11 21:00:00,77.7,75.2,30.02,WNW,284,1.0,1.0,92,0.00,,,0.00,0,Wunderground v.1.15,2013-05-12 01:00:00,
2013-05-11 21:30:00,77.6,75.1,30.02,WNW,283,1.0,1.0,92,0.00,,,0.00,0,Wunderground v.1.15,2013-05-12 01:30:00,
2013-05-11 22:00:00,77.5,75.3,30.03,West,280,2.0,2.0,93,0.00,,,0.00,0,Wunderground v.1.15,2013-05-12 02:00:00,
2013-05-11 22:30:00,77.3,74.8,30.04,West,273,0.0,0.0,92,0.00,,,0.00,0,Wunderground v.1.15,2013-05-12 02:30:00,
2013-05-11 23:00:00,77.3,74.8,30.04,West,272,0.0,0.0,92,0.00,,,0.00,0,Wunderground v.1.15,2013-05-12 03:00:00,
2013-05-11 23:30:00,77.0,74.5,30.03,SW,231,0.0,0.0,92,0.00,,,0.00,0,Wunderground v.1.15,2013-05-12 03:30:00,